Yellowstone National Park, WY

10:32 AM MDT on August 20, 2014 (GMT -0600)
RAWS GREBE WY US | Change Station
CLOSE
Current Station
Personal Weather Station
Location: Yellowstone National Park, WY
Elevation: 7899 ft
Nearby Weather Stations

Elev 7899 ft 44.72 °N, 110.51 °W | Updated 43 minutes ago

Overcast
Overcast
51 °F
Feels Like 51 °F
N
2
Wind Variable Wind from SE
Gusts 4.0 mph

Today
High -- | Low -- °F
--% Chance of Precip.
Yesterday
High -- | Low -- °F
Precip. -- in
6:29 AM 8:19 PM
Waning Crescent, 20% visible
Pressure 30.09 in
Visibility 10.0 miles
Clouds Overcast 600 ft
Dew Point 48 °F
Humidity 89%
Rainfall 0.05 in
Snow Depth Not available.
UV 2 out of 12
Pollen 7.90 out of 12
Air Quality Not available.
Flu Activity Not available.
METAR KWYS 201610Z AUTO 00000KT 10SM OVC006 09/08 A3009 RMK AO2

More Conditions Fewer Conditions

Pressure 30.09 in
Visibility 10.0 miles
Clouds Overcast 600 ft
Dew Point 48 °F
Humidity 89%
Rainfall 0.05 in
Snow Depth Not available.
UV 2 out of 12
Pollen 7.90 out of 12
Air Quality Not available.
Flu Activity Not available.
METAR KWYS 201610Z AUTO 00000KT 10SM OVC006 09/08 A3009 RMK AO2

More Conditions Fewer Conditions

10-Day Weather Forecast

Almanac

Astronomy

Aug. 20, 2014 Rise Set
Actual Time 6:29 AM MDT 8:19 PM MDT
Civil Twilight 5:58 AM MDT 8:50 PM MDT
Nautical Twilight 5:20 AM MDT 9:28 PM MDT
Astronomical Twilight 4:38 AM MDT 10:10 PM MDT
Moon 2:07 AM MDT 5:11 PM MDT
Length of Visible Light 14h 52m
Length of Day
13h 49m
Tomorrow will be 2m 52s shorter.
Waning Crescent, 20% of the Moon is Illuminated
Today
Waning Crescent
Aug 25
New
Sep 2
First Quarter
Sep 8
Full
Sep 15
Last Quarter

Today's Extremes

State Highs State Lows

Community

WunderPhotos

Upload Photos

1,745,689 photos uploaded!

Nearby

Snow Depth

Station Depth Elevation
Parker Peak 0 in 9400 ft
Sylvan Lake 0 in 8420 ft
Sylvan Road 0 in 7120 ft
Evening Star 0 in 9200 ft
Beartooth Lake 0 in 9275 ft

Earthquake Activity

City Distance Mag. Time & Date
No recent earthquake activity has been reported nearby.
Minimum magnitude displayed is 2.5.

Coastal Water Temperatures

Place Temperature
No Stations Reporting

Nearby Weather Stations